createdAt,value
2018-09-25T00:00:38.715Z,11.00
2018-09-25T00:03:11.667Z,10.90
2018-09-25T00:05:44.617Z,10.90
2018-09-25T00:08:17.476Z,10.90
2018-09-25T00:10:50.527Z,10.80
2018-09-25T00:13:23.579Z,10.80
2018-09-25T00:15:56.560Z,10.80
2018-09-25T00:18:29.459Z,10.70
2018-09-25T00:21:02.410Z,10.70
2018-09-25T00:23:35.336Z,10.70
2018-09-25T00:26:08.294Z,10.60
2018-09-25T00:28:41.475Z,10.60
2018-09-25T00:31:14.388Z,10.60
2018-09-25T00:33:47.356Z,10.50
2018-09-25T00:36:20.284Z,10.50
2018-09-25T00:38:53.237Z,10.40
2018-09-25T00:41:26.147Z,10.40
2018-09-25T00:43:59.167Z,10.40
2018-09-25T00:46:32.185Z,10.40
2018-09-25T00:49:05.127Z,10.30
2018-09-25T00:51:38.284Z,10.30
2018-09-25T00:54:11.535Z,10.20
2018-09-25T00:56:44.833Z,10.20
2018-09-25T00:59:17.807Z,10.20
2018-09-25T01:01:50.781Z,10.20
2018-09-25T01:04:23.996Z,10.30
2018-09-25T01:06:56.936Z,10.20
2018-09-25T01:09:29.882Z,10.20
2018-09-25T01:12:02.842Z,10.30
2018-09-25T01:14:35.745Z,10.30
2018-09-25T01:17:08.718Z,10.30
2018-09-25T01:19:41.626Z,10.40
2018-09-25T01:22:14.572Z,10.40
2018-09-25T01:24:47.523Z,10.50
2018-09-25T01:27:20.722Z,10.50
2018-09-25T01:29:54.170Z,10.60
2018-09-25T01:32:27.132Z,10.60
2018-09-25T01:35:00.303Z,10.60
2018-09-25T01:37:33.315Z,10.70
2018-09-25T01:40:06.235Z,10.80
2018-09-25T01:42:39.100Z,10.70
2018-09-25T01:45:12.201Z,10.70
2018-09-25T01:47:45.177Z,10.70
2018-09-25T01:55:14.960Z,10.80
2018-09-25T01:57:47.912Z,10.70
2018-09-25T02:00:20.982Z,10.60
2018-09-25T02:02:53.877Z,10.70
2018-09-25T02:05:26.884Z,10.70
2018-09-25T02:07:59.766Z,10.70
2018-09-25T02:10:32.835Z,10.60
2018-09-25T02:13:05.876Z,10.60
2018-09-25T02:15:38.823Z,10.60
2018-09-25T02:18:11.823Z,10.50
2018-09-25T02:20:44.655Z,10.50
2018-09-25T02:23:17.867Z,10.50
2018-09-25T02:25:50.860Z,10.40
2018-09-25T02:28:23.761Z,10.30
2018-09-25T02:30:56.751Z,10.30
2018-09-25T02:33:29.711Z,10.30
2018-09-25T02:36:02.625Z,10.20
2018-09-25T02:38:35.587Z,10.20
2018-09-25T02:41:08.573Z,10.10
2018-09-25T02:43:41.461Z,10.10
2018-09-25T02:46:14.375Z,10.10
2018-09-25T02:48:47.324Z,10.10
2018-09-25T02:51:20.508Z,10.10
2018-09-25T02:53:53.516Z,10.00
2018-09-25T02:56:26.517Z,10.00
2018-09-25T02:58:59.483Z,10.00
2018-09-25T03:01:32.471Z,9.90
2018-09-25T03:04:05.502Z,9.90
2018-09-25T03:06:38.449Z,9.90
2018-09-25T03:09:13.067Z,9.90
2018-09-25T03:11:46.478Z,9.80
2018-09-25T03:14:19.738Z,9.80
2018-09-25T03:16:52.668Z,9.70
2018-09-25T03:19:26.201Z,9.70
2018-09-25T03:21:59.203Z,9.70
2018-09-25T03:24:32.139Z,9.70
2018-09-25T03:27:05.115Z,9.70
2018-09-25T03:29:38.035Z,9.60
2018-09-25T03:32:11.064Z,9.60
2018-09-25T03:34:44.023Z,9.60
2018-09-25T03:37:16.903Z,9.60
2018-09-25T03:39:49.828Z,9.50
2018-09-25T03:42:22.710Z,9.50
2018-09-25T03:44:55.874Z,9.50
2018-09-25T03:47:28.905Z,9.50
2018-09-25T03:50:02.035Z,9.40
2018-09-25T03:52:35.136Z,9.40
2018-09-25T03:55:08.123Z,9.40
2018-09-25T03:57:41.040Z,9.30
2018-09-25T04:00:13.969Z,9.40
2018-09-25T04:02:47.095Z,9.30
2018-09-25T04:05:19.988Z,9.20
2018-09-25T04:07:53.007Z,9.20
2018-09-25T04:10:25.957Z,9.20
2018-09-25T04:12:58.958Z,9.10
2018-09-25T04:15:32.141Z,9.10
2018-09-25T04:18:05.267Z,9.10
2018-09-25T04:20:38.515Z,9.10
2018-09-25T04:23:11.382Z,9.00
2018-09-25T04:25:44.594Z,9.00
2018-09-25T04:28:18.030Z,8.90
2018-09-25T04:30:51.379Z,8.90
2018-09-25T04:33:24.519Z,8.90
2018-09-25T04:35:57.655Z,8.80
2018-09-25T04:38:30.622Z,8.80
2018-09-25T04:41:03.555Z,8.80
2018-09-25T04:43:36.532Z,8.70
2018-09-25T04:46:09.535Z,8.70
2018-09-25T04:48:42.487Z,8.60
2018-09-25T04:51:15.488Z,8.60
2018-09-25T04:53:48.394Z,8.60
2018-09-25T04:56:21.387Z,8.50
2018-09-25T04:58:54.279Z,8.50
2018-09-25T05:01:27.399Z,8.50
2018-09-25T05:04:00.343Z,8.40
2018-09-25T05:06:33.402Z,8.40
2018-09-25T05:09:06.452Z,8.30
2018-09-25T05:11:39.475Z,8.30
2018-09-25T05:14:12.519Z,8.30
2018-09-25T05:16:45.428Z,8.20
2018-09-25T05:19:18.427Z,8.20
2018-09-25T05:21:51.436Z,8.10
2018-09-25T05:24:24.434Z,8.10
2018-09-25T05:26:57.287Z,8.10
2018-09-25T05:29:30.191Z,8.00
2018-09-25T05:32:03.175Z,8.00
2018-09-25T05:34:36.086Z,8.00
2018-09-25T05:37:09.050Z,8.00
2018-09-25T05:39:42.033Z,7.90
2018-09-25T05:42:15.028Z,7.90
2018-09-25T05:44:48.003Z,7.90
2018-09-25T05:47:21.175Z,7.80
2018-09-25T05:49:54.134Z,7.80
2018-09-25T05:52:27.006Z,7.80
2018-09-25T05:54:59.955Z,8.00
2018-09-25T05:57:33.131Z,7.80
2018-09-25T06:00:06.259Z,7.90
2018-09-25T06:02:39.215Z,7.90
2018-09-25T06:05:12.504Z,8.00
2018-09-25T06:07:45.437Z,8.10
2018-09-25T06:10:18.396Z,8.20
2018-09-25T06:12:51.370Z,8.30
2018-09-25T06:15:24.369Z,8.50
2018-09-25T06:17:57.384Z,8.50
2018-09-25T06:20:30.616Z,8.60
2018-09-25T06:23:03.636Z,8.70
2018-09-25T06:25:36.583Z,8.70
2018-09-25T06:28:09.607Z,8.70
2018-09-25T06:30:42.585Z,8.80
2018-09-25T06:33:15.763Z,8.80
2018-09-25T06:35:48.669Z,8.90
2018-09-25T06:38:21.641Z,8.90
2018-09-25T06:40:54.658Z,8.90
2018-09-25T06:43:27.699Z,9.00
2018-09-25T06:46:00.650Z,9.10
2018-09-25T06:48:33.636Z,9.20
2018-09-25T06:51:06.564Z,9.20
2018-09-25T06:53:39.847Z,9.30
2018-09-25T06:56:13.069Z,9.40
2018-09-25T07:01:18.967Z,9.60
2018-09-25T07:03:52.210Z,9.70
2018-09-25T07:06:25.167Z,9.80
2018-09-25T07:08:58.091Z,9.90
2018-09-25T07:11:31.075Z,10.00
2018-09-25T07:14:04.567Z,10.10
2018-09-25T07:16:37.579Z,10.20
2018-09-25T07:19:10.562Z,10.30
2018-09-25T07:21:43.687Z,10.40
2018-09-25T07:24:16.644Z,10.40
2018-09-25T07:26:49.576Z,10.50
2018-09-25T07:29:22.579Z,10.60
2018-09-25T07:31:55.655Z,10.70
2018-09-25T07:34:28.850Z,10.80
2018-09-25T07:37:01.972Z,10.90
2018-09-25T07:39:34.933Z,11.00
2018-09-25T07:42:07.941Z,11.20
2018-09-25T07:44:40.824Z,11.30
2018-09-25T07:47:13.771Z,11.50
2018-09-25T07:49:46.701Z,11.60
2018-09-25T07:52:19.824Z,11.80
2018-09-25T07:54:52.815Z,12.00
2018-09-25T07:57:25.763Z,12.10
2018-09-25T07:59:59.135Z,12.30
2018-09-25T08:02:32.143Z,12.40
2018-09-25T08:05:05.096Z,12.60
2018-09-25T08:07:37.991Z,12.70
2018-09-25T08:10:10.960Z,12.90
2018-09-25T08:12:43.875Z,13.00
2018-09-25T08:15:16.910Z,13.10
2018-09-25T08:17:49.945Z,13.20
2018-09-25T08:20:22.824Z,13.40
2018-09-25T08:22:56.405Z,13.50
2018-09-25T08:25:29.262Z,13.60
2018-09-25T08:28:02.420Z,13.80
2018-09-25T08:30:35.399Z,13.90
2018-09-25T08:33:08.393Z,14.00
2018-09-25T08:35:41.555Z,14.10
2018-09-25T08:38:14.564Z,14.20
2018-09-25T08:40:47.488Z,14.40
2018-09-25T08:43:20.440Z,14.50
2018-09-25T08:45:53.337Z,14.60
2018-09-25T08:48:26.270Z,14.70
2018-09-25T08:50:59.143Z,14.90
2018-09-25T08:53:32.020Z,15.00
2018-09-25T08:56:05.152Z,15.10
2018-09-25T08:58:38.088Z,15.20
2018-09-25T09:01:11.475Z,15.30
2018-09-25T09:03:44.359Z,15.40
2018-09-25T09:06:17.391Z,15.60
2018-09-25T09:08:50.335Z,15.70
2018-09-25T09:11:23.692Z,15.80
2018-09-25T09:13:56.663Z,15.90
2018-09-25T09:16:29.594Z,16.00
2018-09-25T09:19:02.577Z,16.00
2018-09-25T09:21:35.476Z,16.10
2018-09-25T09:24:08.681Z,16.10
2018-09-25T09:26:41.687Z,16.20
2018-09-25T09:29:14.612Z,16.30
2018-09-25T09:31:47.627Z,16.30
2018-09-25T09:34:20.635Z,16.40
2018-09-25T09:36:53.673Z,16.50
2018-09-25T09:39:26.663Z,16.60
2018-09-25T09:41:59.772Z,16.70
2018-09-25T09:44:32.527Z,16.70
2018-09-25T09:47:05.412Z,16.80
2018-09-25T09:49:38.359Z,16.90
2018-09-25T09:52:11.381Z,16.90
2018-09-25T09:54:44.396Z,17.00
2018-09-25T09:57:17.354Z,17.10
2018-09-25T09:59:50.228Z,17.20
2018-09-25T10:02:23.187Z,17.20
2018-09-25T10:04:56.163Z,17.30
2018-09-25T10:07:29.131Z,17.30
2018-09-25T10:10:02.292Z,17.40
2018-09-25T10:12:35.314Z,17.50
2018-09-25T10:15:08.296Z,17.60
2018-09-25T10:17:41.259Z,17.60
2018-09-25T10:20:14.335Z,17.70
2018-09-25T10:22:47.167Z,17.80
2018-09-25T10:25:20.149Z,17.90
2018-09-25T10:27:53.107Z,18.00
2018-09-25T10:30:26.203Z,18.10
2018-09-25T10:32:59.128Z,18.20
2018-09-25T10:35:32.136Z,18.20
2018-09-25T10:38:05.031Z,18.30
2018-09-25T10:40:38.275Z,18.40
2018-09-25T10:43:11.429Z,18.40
2018-09-25T10:45:44.414Z,18.50
2018-09-25T10:48:17.389Z,18.50
2018-09-25T10:50:50.338Z,18.60
2018-09-25T10:53:23.302Z,18.70
2018-09-25T10:55:56.350Z,18.70
2018-09-25T10:58:29.183Z,18.80
2018-09-25T11:01:02.135Z,18.80
2018-09-25T11:03:35.299Z,18.80
2018-09-25T11:06:08.270Z,18.80
2018-09-25T11:08:41.209Z,18.80
2018-09-25T11:11:14.114Z,18.80
2018-09-25T11:13:47.028Z,18.80
2018-09-25T11:16:20.056Z,18.90
2018-09-25T11:18:52.993Z,19.00
2018-09-25T11:21:25.882Z,19.10
2018-09-25T11:23:58.889Z,19.20
2018-09-25T11:26:31.787Z,19.20
2018-09-25T11:29:04.800Z,19.20
2018-09-25T11:31:37.643Z,19.30
2018-09-25T11:34:10.786Z,19.30
2018-09-25T11:36:43.749Z,19.30
2018-09-25T11:39:16.691Z,19.30
2018-09-25T11:41:49.682Z,19.30
2018-09-25T11:44:22.892Z,19.30
2018-09-25T11:46:55.922Z,19.20
2018-09-25T11:49:29.060Z,19.10
2018-09-25T11:52:02.163Z,19.10
2018-09-25T11:54:35.154Z,19.00
2018-09-25T11:57:08.071Z,18.90
2018-09-25T11:59:40.962Z,18.90
2018-09-25T12:02:14.229Z,18.90
2018-09-25T12:04:47.120Z,18.90
2018-09-25T12:07:20.095Z,19.00
2018-09-25T12:09:53.100Z,19.00
2018-09-25T12:12:26.069Z,19.10
2018-09-25T12:14:59.240Z,19.10
2018-09-25T12:17:32.278Z,19.10
2018-09-25T12:20:05.168Z,19.10
2018-09-25T12:22:38.115Z,19.10
2018-09-25T12:25:11.035Z,19.20
2018-09-25T12:27:44.099Z,19.20
2018-09-25T12:30:17.022Z,19.30
2018-09-25T12:32:50.255Z,19.40
2018-09-25T12:35:23.234Z,19.50
2018-09-25T12:37:56.211Z,19.50
2018-09-25T12:40:29.196Z,19.60
2018-09-25T12:43:02.496Z,19.60
2018-09-25T12:45:35.645Z,19.60
2018-09-25T12:48:08.536Z,19.60
2018-09-25T12:50:41.455Z,19.70
2018-09-25T12:53:14.583Z,19.70
2018-09-25T12:55:47.595Z,19.80
2018-09-25T12:58:20.623Z,19.80
2018-09-25T13:00:53.611Z,19.90
2018-09-25T13:03:26.595Z,20.00
2018-09-25T13:05:59.630Z,20.00
2018-09-25T13:08:32.585Z,20.10
2018-09-25T13:11:05.451Z,20.10
2018-09-25T13:13:38.464Z,20.20
2018-09-25T13:16:12.079Z,20.20
2018-09-25T13:18:45.020Z,20.30
2018-09-25T13:21:18.295Z,20.40
2018-09-25T13:23:51.550Z,20.40
2018-09-25T13:26:24.547Z,20.40
2018-09-25T13:28:57.407Z,20.40
2018-09-25T13:31:30.352Z,20.40
2018-09-25T13:34:03.335Z,20.50
2018-09-25T13:36:36.303Z,20.50
2018-09-25T13:39:11.656Z,20.50
2018-09-25T13:41:44.772Z,20.60
2018-09-25T13:44:17.853Z,20.60
2018-09-25T13:46:50.764Z,20.60
2018-09-25T13:49:23.672Z,20.60
2018-09-25T13:51:56.630Z,20.70
2018-09-25T13:54:29.800Z,20.70
2018-09-25T13:57:02.815Z,20.70
2018-09-25T13:59:35.652Z,20.70
2018-09-25T14:02:08.673Z,20.70
2018-09-25T14:04:41.680Z,20.60
2018-09-25T14:07:14.654Z,20.60
2018-09-25T14:09:47.666Z,20.60
2018-09-25T14:12:20.572Z,20.60
2018-09-25T14:14:53.779Z,20.60
2018-09-25T14:17:26.995Z,20.50
2018-09-25T14:19:59.995Z,20.50
2018-09-25T14:22:33.187Z,20.50
2018-09-25T14:25:06.456Z,20.40
2018-09-25T14:27:39.437Z,20.40
2018-09-25T14:30:12.419Z,20.30
2018-09-25T14:32:45.463Z,20.30
2018-09-25T14:35:18.404Z,20.30
2018-09-25T14:37:51.691Z,20.40
2018-09-25T14:40:24.853Z,20.40
2018-09-25T14:42:58.084Z,20.40
2018-09-25T14:45:31.021Z,20.30
2018-09-25T14:48:04.227Z,20.30
2018-09-25T14:50:37.151Z,20.30
2018-09-25T14:53:10.303Z,20.20
2018-09-25T14:55:43.236Z,20.10
2018-09-25T14:58:16.259Z,20.00
2018-09-25T15:00:49.209Z,19.90
2018-09-25T15:03:22.172Z,19.80
2018-09-25T15:05:55.115Z,19.70
2018-09-25T15:08:28.023Z,19.60
2018-09-25T15:11:00.938Z,19.50
2018-09-25T15:13:33.944Z,19.40
2018-09-25T15:16:07.002Z,19.30
2018-09-25T15:18:39.920Z,19.30
2018-09-25T15:21:13.169Z,19.20
2018-09-25T15:23:46.159Z,19.10
2018-09-25T15:26:19.173Z,19.10
2018-09-25T15:28:52.168Z,19.00
2018-09-25T15:31:25.128Z,18.90
2018-09-25T15:33:58.099Z,18.90
2018-09-25T15:36:31.129Z,18.80
2018-09-25T15:39:04.344Z,18.70
2018-09-25T15:41:37.385Z,18.70
2018-09-25T15:44:10.213Z,18.70
2018-09-25T15:46:43.319Z,18.70
2018-09-25T15:49:16.370Z,18.70
2018-09-25T15:51:49.265Z,18.70
2018-09-25T15:54:22.241Z,18.70
2018-09-25T15:56:55.178Z,18.60
2018-09-25T15:59:28.284Z,18.60
2018-09-25T16:02:01.280Z,18.60
2018-09-25T16:04:34.300Z,18.60
2018-09-25T16:07:07.271Z,18.60
2018-09-25T16:09:40.203Z,18.60
2018-09-25T16:12:13.129Z,18.60
2018-09-25T16:14:46.044Z,18.60
2018-09-25T16:17:18.948Z,18.60
2018-09-25T16:19:51.837Z,18.60
2018-09-25T16:22:24.779Z,18.60
2018-09-25T16:24:57.710Z,18.60
2018-09-25T16:27:30.655Z,18.60
2018-09-25T16:30:03.621Z,18.60
2018-09-25T16:32:36.650Z,18.60
2018-09-25T16:35:09.716Z,18.60
2018-09-25T16:37:42.655Z,18.60
2018-09-25T16:40:15.578Z,18.50
2018-09-25T16:42:48.595Z,18.50
2018-09-25T16:45:21.738Z,18.50
2018-09-25T16:47:54.739Z,18.40
2018-09-25T16:50:27.743Z,18.40
2018-09-25T16:53:00.781Z,18.40
2018-09-25T16:55:33.980Z,18.30
2018-09-25T16:58:06.912Z,18.20
2018-09-25T17:00:39.861Z,18.20
2018-09-25T17:03:12.775Z,18.10
2018-09-25T17:05:45.695Z,18.00
2018-09-25T17:08:18.671Z,18.00
2018-09-25T17:10:51.540Z,17.80
2018-09-25T17:13:24.541Z,17.70
2018-09-25T17:15:57.492Z,17.70
2018-09-25T17:18:30.445Z,17.50
2018-09-25T17:21:03.455Z,17.40
2018-09-25T17:23:36.432Z,17.30
2018-09-25T17:26:09.428Z,17.20
2018-09-25T17:28:42.402Z,17.00
2018-09-25T17:31:15.353Z,16.90
2018-09-25T17:33:48.376Z,16.70
2018-09-25T17:36:21.324Z,16.60
2018-09-25T17:38:54.255Z,16.50
2018-09-25T17:41:27.256Z,16.30
2018-09-25T17:44:00.171Z,16.20
2018-09-25T17:46:33.187Z,16.00
2018-09-25T17:49:06.131Z,15.90
2018-09-25T17:51:39.196Z,15.80
2018-09-25T17:54:12.371Z,15.60
2018-09-25T17:56:45.275Z,15.50
2018-09-25T17:59:18.223Z,15.40
2018-09-25T18:01:51.277Z,15.30
2018-09-25T18:04:24.588Z,15.20
2018-09-25T18:06:57.546Z,15.10
2018-09-25T18:09:30.572Z,15.00
2018-09-25T18:12:03.490Z,14.90
2018-09-25T18:14:36.792Z,14.80
2018-09-25T18:17:09.739Z,14.70
2018-09-25T18:19:42.907Z,14.60
2018-09-25T18:22:16.099Z,14.50
2018-09-25T18:24:49.252Z,14.40
2018-09-25T18:27:22.217Z,14.30
2018-09-25T18:29:55.415Z,14.20
2018-09-25T18:32:28.392Z,14.10
2018-09-25T18:35:01.297Z,14.00
2018-09-25T18:37:34.288Z,13.90
2018-09-25T18:40:07.774Z,13.80
2018-09-25T18:42:40.691Z,13.80
2018-09-25T18:45:13.668Z,13.70
2018-09-25T18:47:46.848Z,13.60
2018-09-25T18:50:19.778Z,13.60
2018-09-25T18:52:52.975Z,13.50
2018-09-25T18:55:26.212Z,13.40
2018-09-25T18:57:59.388Z,13.40
2018-09-25T19:00:32.293Z,13.30
2018-09-25T19:03:05.273Z,13.20
2018-09-25T19:05:38.524Z,13.10
2018-09-25T19:08:11.395Z,13.10
2018-09-25T19:10:44.632Z,13.00
2018-09-25T19:13:17.616Z,12.90
2018-09-25T19:15:50.564Z,12.80
2018-09-25T19:18:23.613Z,12.70
2018-09-25T19:20:56.600Z,12.70
2018-09-25T19:23:29.511Z,12.60
2018-09-25T19:26:02.460Z,12.50
2018-09-25T19:28:35.368Z,12.50
2018-09-25T19:31:08.314Z,12.40
2018-09-25T19:33:41.452Z,12.30
2018-09-25T19:36:14.376Z,12.20
2018-09-25T19:38:47.382Z,12.20
2018-09-25T19:41:20.289Z,12.20
2018-09-25T19:43:53.269Z,12.10
2018-09-25T19:46:26.496Z,12.10
2018-09-25T19:48:59.627Z,12.00
2018-09-25T19:51:32.615Z,12.00
2018-09-25T19:54:05.644Z,12.00
2018-09-25T19:56:38.608Z,11.90
2018-09-25T19:59:11.597Z,11.90
2018-09-25T20:01:44.560Z,11.80
2018-09-25T20:04:17.641Z,11.80
2018-09-25T20:06:50.813Z,11.80
2018-09-25T20:09:23.990Z,11.70
2018-09-25T20:11:57.175Z,11.70
2018-09-25T20:14:30.249Z,11.70
2018-09-25T20:17:03.225Z,11.60
2018-09-25T20:19:36.270Z,11.60
2018-09-25T20:22:11.715Z,11.60
2018-09-25T20:24:44.719Z,11.50
2018-09-25T20:27:17.697Z,11.50
2018-09-25T20:29:50.608Z,11.40
2018-09-25T20:32:23.713Z,11.40
2018-09-25T20:34:56.779Z,11.30
2018-09-25T20:37:29.952Z,11.30
2018-09-25T20:40:03.096Z,11.20
2018-09-25T20:42:36.053Z,11.20
2018-09-25T20:45:09.179Z,11.10
2018-09-25T20:47:42.108Z,11.10
2018-09-25T20:50:15.380Z,11.20
2018-09-25T20:52:48.332Z,11.00
2018-09-25T20:55:21.391Z,10.90
2018-09-25T20:57:54.467Z,10.90
2018-09-25T21:00:27.540Z,10.80
2018-09-25T21:03:00.480Z,10.80
2018-09-25T21:05:33.336Z,10.80
2018-09-25T21:08:06.256Z,10.80
2018-09-25T21:10:39.218Z,10.80
2018-09-25T21:13:12.189Z,11.00
2018-09-25T21:15:45.265Z,10.80
2018-09-25T21:18:18.360Z,10.80
2018-09-25T21:20:51.357Z,10.80
2018-09-25T21:23:24.477Z,10.70
2018-09-25T21:25:57.994Z,10.70
2018-09-25T21:28:31.857Z,10.70
2018-09-25T21:31:05.124Z,10.70
2018-09-25T21:33:38.345Z,10.70
2018-09-25T21:36:11.856Z,10.60
2018-09-25T21:38:45.066Z,10.60
2018-09-25T21:41:19.490Z,10.50
2018-09-25T21:43:52.704Z,10.50
2018-09-25T21:46:25.920Z,10.50
2018-09-25T21:48:59.187Z,10.40
2018-09-25T21:51:32.385Z,10.40
2018-09-25T21:54:05.029Z,10.40
2018-09-25T21:56:38.082Z,10.30
2018-09-25T21:59:11.372Z,10.30
2018-09-25T22:01:44.244Z,10.30
2018-09-25T22:04:17.244Z,10.20
2018-09-25T22:06:50.313Z,10.20
2018-09-25T22:09:23.320Z,10.30
2018-09-25T22:11:56.345Z,10.20
2018-09-25T22:14:29.367Z,10.10
2018-09-25T22:17:02.319Z,10.10
2018-09-25T22:19:35.371Z,10.10
2018-09-25T22:22:08.552Z,10.10
2018-09-25T22:27:22.328Z,10.00
2018-09-25T22:29:55.423Z,10.00
2018-09-25T22:32:31.936Z,10.00
2018-09-25T22:35:04.921Z,10.00
2018-09-25T22:37:37.865Z,10.00
2018-09-25T22:40:11.075Z,10.00
2018-09-25T22:42:44.105Z,9.90
2018-09-25T22:45:17.027Z,9.90
2018-09-25T22:47:49.954Z,9.90
2018-09-25T22:50:22.884Z,9.90
2018-09-25T22:52:56.033Z,9.90
2018-09-25T22:55:29.567Z,9.80
2018-09-25T22:58:02.743Z,9.80
2018-09-25T23:00:35.759Z,9.80
2018-09-25T23:03:09.013Z,9.80
2018-09-25T23:05:42.372Z,9.70
2018-09-25T23:08:15.249Z,9.70
2018-09-25T23:10:48.708Z,9.60
2018-09-25T23:13:21.734Z,9.60
2018-09-25T23:15:54.644Z,9.60
2018-09-25T23:18:27.571Z,9.60
2018-09-25T23:21:00.582Z,9.50
2018-09-25T23:23:33.743Z,9.50
2018-09-25T23:26:06.648Z,9.50
2018-09-25T23:28:39.595Z,9.50
2018-09-25T23:31:12.636Z,9.50
2018-09-25T23:33:45.654Z,9.40
2018-09-25T23:43:28.036Z,9.40
2018-09-25T23:46:00.961Z,9.30
2018-09-25T23:48:36.810Z,9.10
2018-09-25T23:51:09.567Z,9.10
2018-09-25T23:53:47.485Z,9.10
2018-09-25T23:56:48.825Z,9.10
2018-09-25T23:59:23.794Z,9.00
